Time;durP1;ratioP1;P1;durP2;ratioP2;P2;SDS_P1;SDS_P2;PMS_P1;PMS_P2;Temp;Humidity;BMP_temperature;BMP_pressure;BME280_temperature;BME280_humidity;BME280_pressure;Samples;Min_cycle;Max_cycle;Signal;HPM_P1;HPM_P2
2020/12/02 00:00:28;;;;;;;30.00;16.73;;;;;;;-3.90;76.33;97088.80;1684410;84;21340;-88
2020/12/02 00:03:20;;;;;;;28.92;16.65;;;;;;;-3.92;76.32;97094.73;1728523;82;21097;-88
2020/12/02 00:05:52;;;;;;;27.30;17.17;;;;;;;-3.91;76.34;97091.75;1726910;81;21134;-88
2020/12/02 00:08:25;;;;;;;25.65;16.77;;;;;;;-3.89;76.38;97086.62;1738402;80;21111;-88
2020/12/02 00:10:51;;;;;;;25.77;17.35;;;;;;;-3.89;76.33;97092.53;1728603;80;21344;-88
2020/12/02 00:13:26;;;;;;;27.50;15.63;;;;;;;-3.86;76.34;97091.09;1731952;80;21371;-88
2020/12/02 00:15:51;;;;;;;23.98;14.87;;;;;;;-3.81;76.24;97094.22;1732496;80;21280;-89
2020/12/02 00:18:17;;;;;;;28.23;16.20;;;;;;;-3.72;76.20;97096.77;1728960;80;21122;-88
2020/12/02 00:20:43;;;;;;;22.87;14.73;;;;;;;-3.70;76.11;97094.52;1727145;82;21125;-87
2020/12/02 00:23:10;;;;;;;23.65;15.00;;;;;;;-3.73;76.06;97094.67;1725898;82;21133;-88
2020/12/02 00:25:35;;;;;;;27.60;16.27;;;;;;;-3.78;76.11;97092.80;1739970;80;21240;-88
2020/12/02 00:28:05;;;;;;;29.15;17.25;;;;;;;-3.82;76.26;97094.30;1743903;80;21138;-88
2020/12/02 00:30:33;;;;;;;25.85;16.17;;;;;;;-3.86;76.42;97094.91;1740959;82;21272;-88
2020/12/02 00:33:09;;;;;;;25.60;16.15;;;;;;;-3.90;76.29;97084.54;1727009;80;21324;-89
2020/12/02 00:35:36;;;;;;;28.47;15.70;;;;;;;-3.94;76.34;97085.11;1734979;80;21253;-88
2020/12/02 00:38:03;;;;;;;29.90;16.97;;;;;;;-3.96;76.50;97083.11;1729861;80;21122;-88
2020/12/02 00:40:29;;;;;;;27.25;16.77;;;;;;;-3.94;76.59;97086.83;1738270;80;21601;-88
2020/12/02 00:42:55;;;;;;;28.07;16.12;;;;;;;-3.94;76.70;97088.92;1734809;80;21454;-88
2020/12/02 00:45:22;;;;;;;29.15;17.05;;;;;;;-3.93;76.68;97090.56;1746250;80;21368;-88
2020/12/02 00:47:50;;;;;;;28.30;17.48;;;;;;;-3.94;76.65;97088.10;1732059;80;21116;-88
2020/12/02 00:50:17;;;;;;;32.35;18.70;;;;;;;-3.94;76.70;97088.10;1711216;81;21111;-88
2020/12/02 00:53:05;;;;;;;28.60;16.77;;;;;;;-3.94;76.67;97085.56;1701928;82;21442;-88
2020/12/02 00:55:31;;;;;;;30.35;18.55;;;;;;;-3.93;76.65;97089.74;1736841;81;21103;-88
2020/12/02 00:57:58;;;;;;;29.92;17.60;;;;;;;-3.95;76.56;97094.08;1736024;81;21111;-88
2020/12/02 01:00:26;;;;;;;28.98;18.90;;;;;;;-3.97;76.64;97093.34;1747298;80;21328;-88
2020/12/02 01:03:04;;;;;;;29.80;18.10;;;;;;;-4.00;76.68;97088.41;1716382;82;21103;-88
2020/12/02 01:05:31;;;;;;;29.75;17.55;;;;;;;-4.03;76.70;97089.84;1757060;81;21105;-88
2020/12/02 01:08:31;;;;;;;31.40;18.92;;;;;;;-4.05;76.67;97091.64;1754051;81;21166;-87
2020/12/02 01:11:23;;;;;;;28.73;17.40;;;;;;;-4.05;76.69;97091.19;1753722;81;21107;-88
2020/12/02 01:13:56;;;;;;;28.20;17.20;;;;;;;-4.07;76.71;97094.25;1754692;80;21077;-88
2020/12/02 01:16:30;;;;;;;27.32;16.37;;;;;;;-4.07;76.64;97092.13;1755235;81;21319;-88
2020/12/02 01:18:57;;;;;;;30.82;17.73;;;;;;;-4.07;76.58;97093.41;1747157;81;21129;-87
2020/12/02 01:21:42;;;;;;;29.27;17.05;;;;;;;-4.05;76.55;97091.64;1754056;81;21113;-88
2020/12/02 01:24:15;;;;;;;28.83;16.85;;;;;;;-4.06;76.47;97093.80;1748702;81;21538;-87
2020/12/02 01:26:45;;;;;;;27.17;17.37;;;;;;;-4.07;76.42;97097.20;1756578;81;21399;-88
2020/12/02 01:29:16;;;;;;;27.32;16.75;;;;;;;-4.09;76.48;97092.66;1684661;84;21149;-88
2020/12/02 01:31:45;;;;;;;34.88;19.82;;;;;;;-4.09;76.46;97094.75;1765372;81;21338;-88
2020/12/02 01:34:11;;;;;;;30.70;17.90;;;;;;;-4.09;76.48;97090.13;1754695;81;21430;-88
2020/12/02 01:37:12;;;;;;;29.25;18.67;;;;;;;-4.11;76.50;97090.64;1764714;81;21237;-87
2020/12/02 01:39:43;;;;;;;29.12;18.27;;;;;;;-4.10;76.57;97092.28;1746330;81;21317;-88
2020/12/02 01:42:11;;;;;;;26.82;16.42;;;;;;;-4.11;76.54;97086.39;1763224;81;21272;-88
2020/12/02 01:44:37;;;;;;;27.93;16.50;;;;;;;-4.12;76.46;97088.55;1749174;81;21102;-88
2020/12/02 01:47:26;;;;;;;28.70;16.65;;;;;;;-4.13;76.46;97083.55;1755683;80;21165;-88
2020/12/02 01:50:20;;;;;;;29.85;17.75;;;;;;;-4.16;76.41;97082.45;1773076;80;21323;-88
2020/12/02 01:53:16;;;;;;;35.55;18.65;;;;;;;-4.18;76.43;97074.91;1762730;80;21252;-88
2020/12/02 01:55:49;;;;;;;32.75;18.92;;;;;;;-4.19;76.61;97074.98;1763899;80;21125;-88
2020/12/02 01:58:24;;;;;;;31.82;17.85;;;;;;;-4.21;76.82;97075.06;1750617;80;21161;-87
2020/12/02 02:00:55;;;;;;;29.65;18.32;;;;;;;-4.20;76.88;97074.61;1764502;80;21121;-88
2020/12/02 02:03:22;;;;;;;31.43;18.07;;;;;;;-4.21;76.91;97067.90;1758030;80;21415;-88
2020/12/02 02:06:00;;;;;;;26.93;17.23;;;;;;;-4.22;76.87;97072.60;1763859;80;21416;-88
2020/12/02 02:08:29;;;;;;;26.27;16.12;;;;;;;-4.22;76.75;97072.60;1772569;80;21145;-87
2020/12/02 02:10:56;;;;;;;27.40;17.07;;;;;;;-4.24;76.84;97073.92;1767012;80;21105;-88
2020/12/02 02:13:48;;;;;;;29.12;18.65;;;;;;;-4.24;76.83;97073.47;1766980;80;21425;-88
2020/12/02 02:16:25;;;;;;;30.35;18.98;;;;;;;-4.21;76.92;97079.31;1765140;80;21134;-87
2020/12/02 02:18:51;;;;;;;28.70;17.27;;;;;;;-4.20;76.80;97070.36;1756582;80;21275;-88
2020/12/02 02:21:28;;;;;;;33.73;20.20;;;;;;;-4.22;76.74;97073.87;1767072;80;21391;-88
2020/12/02 02:23:54;;;;;;;30.68;18.90;;;;;;;-4.26;76.67;97068.92;1760242;80;21133;-88
2020/12/02 02:26:41;;;;;;;32.95;18.45;;;;;;;-4.28;76.70;97066.09;1766813;80;21268;-88
2020/12/02 02:29:13;;;;;;;33.30;19.85;;;;;;;-4.28;76.67;97069.89;1770291;80;21888;-88
2020/12/02 02:31:47;;;;;;;29.18;19.20;;;;;;;-4.28;76.60;97071.16;1778832;80;21118;-88
2020/12/02 02:34:13;;;;;;;32.53;18.80;;;;;;;-4.27;76.62;97066.01;1773747;80;21090;-88
2020/12/02 02:36:40;;;;;;;31.93;18.85;;;;;;;-4.24;76.48;97077.72;1765873;80;21128;-88
2020/12/02 02:39:06;;;;;;;31.05;18.87;;;;;;;-4.26;76.33;97073.99;1767969;80;21118;-88
2020/12/02 02:41:33;;;;;;;27.98;17.52;;;;;;;-4.27;76.33;97077.88;1762725;80;21101;-88
2020/12/02 02:43:59;;;;;;;30.10;18.60;;;;;;;-4.23;76.36;97079.39;1780440;80;21228;-88
2020/12/02 02:46:25;;;;;;;31.07;19.45;;;;;;;-4.21;76.32;97072.52;1767301;80;21122;-88
2020/12/02 02:48:51;;;;;;;36.17;22.42;;;;;;;-4.18;76.32;97076.17;1754091;80;21130;-88
2020/12/02 02:51:17;;;;;;;31.45;18.48;;;;;;;-4.18;76.31;97074.91;1683175;84;21363;-88
2020/12/02 02:53:43;;;;;;;35.95;19.17;;;;;;;-4.21;76.19;97071.70;1755784;80;21665;-88
2020/12/02 02:56:11;;;;;;;35.70;21.68;;;;;;;-4.20;76.24;97069.54;1761578;80;21281;-88
2020/12/02 02:58:37;;;;;;;34.55;20.20;;;;;;;-4.22;76.15;97061.18;1756433;80;21242;-87
2020/12/02 03:01:04;;;;;;;33.88;20.88;;;;;;;-4.20;76.16;97063.19;1754318;81;21439;-88
2020/12/02 03:03:30;;;;;;;34.05;21.07;;;;;;;-4.24;76.07;97056.16;1753622;81;21105;-88
2020/12/02 03:05:59;;;;;;;39.45;22.58;;;;;;;-4.26;76.06;97061.30;1767911;81;21095;-88
2020/12/02 03:08:25;;;;;;;33.88;20.68;;;;;;;-4.30;76.02;97059.00;1753313;81;21115;-88
2020/12/02 03:10:51;;;;;;;33.00;20.05;;;;;;;-4.33;76.02;97069.30;1751323;81;21248;-88
2020/12/02 03:13:41;;;;;;;37.73;21.25;;;;;;;-4.34;76.06;97068.48;1746347;81;21086;-88
2020/12/02 03:16:28;;;;;;;41.50;22.73;;;;;;;-4.35;76.12;97073.63;1757767;81;21333;-89
2020/12/02 03:18:58;;;;;;;32.15;18.50;;;;;;;-4.35;76.20;97078.26;1744122;81;21121;-88
2020/12/02 03:21:24;;;;;;;35.58;19.80;;;;;;;-4.38;76.04;97077.59;1755994;81;21121;-88
2020/12/02 03:23:51;;;;;;;29.00;19.25;;;;;;;-4.40;76.08;97071.73;1758094;81;21097;-87
2020/12/02 03:26:17;;;;;;;27.40;16.32;;;;;;;-4.42;76.18;97073.08;1666080;84;21114;-88
2020/12/02 03:28:43;;;;;;;25.30;14.18;;;;;;;-4.42;76.26;97068.02;1698665;83;21162;-88
2020/12/02 03:31:12;;;;;;;23.27;14.40;;;;;;;-4.41;76.41;97063.31;1719607;83;21150;-87
2020/12/02 03:33:39;;;;;;;21.48;13.20;;;;;;;-4.42;76.29;97069.73;1698625;83;21138;-88
2020/12/02 03:36:05;;;;;;;21.48;13.30;;;;;;;-4.45;76.34;97069.88;1719292;83;21187;-88
2020/12/02 03:38:31;;;;;;;21.07;13.65;;;;;;;-4.47;76.43;97064.88;1706445;83;21095;-88
2020/12/02 03:40:57;;;;;;;22.62;13.22;;;;;;;-4.47;76.62;97064.88;1711183;83;21150;-88
2020/12/02 03:43:23;;;;;;;22.55;13.70;;;;;;;-4.47;76.68;97067.86;1699362;83;21150;-88
2020/12/02 03:45:49;;;;;;;19.12;12.35;;;;;;;-4.47;76.63;97075.03;1713367;83;21146;-88
2020/12/02 03:48:16;;;;;;;21.77;14.05;;;;;;;-4.49;76.55;97073.46;1697316;82;21126;-88
2020/12/02 03:50:42;;;;;;;21.75;12.58;;;;;;;-4.50;76.69;97068.84;1707969;82;21162;-88
2020/12/02 03:53:08;;;;;;;24.00;13.70;;;;;;;-4.50;76.55;97062.50;1692405;84;21091;-87
2020/12/02 03:55:35;;;;;;;22.45;15.08;;;;;;;-4.51;76.60;97063.84;1687703;84;21352;-88
2020/12/02 03:58:02;;;;;;;30.50;17.42;;;;;;;-4.49;76.65;97065.85;1709540;83;21522;-87
2020/12/02 04:00:28;;;;;;;26.45;16.93;;;;;;;-4.49;76.63;97066.67;1715904;83;21098;-88
2020/12/02 04:02:54;;;;;;;27.05;14.80;;;;;;;-4.50;76.72;97059.95;1698997;83;21110;-88
2020/12/02 04:05:20;;;;;;;24.12;14.85;;;;;;;-4.49;76.65;97061.60;1703915;83;21126;-89
2020/12/02 04:07:46;;;;;;;24.10;14.13;;;;;;;-4.48;76.69;97063.69;1700196;83;21114;-88
2020/12/02 04:10:12;;;;;;;22.93;14.83;;;;;;;-4.49;76.66;97065.41;1699399;83;21119;-88
2020/12/02 04:12:38;;;;;;;24.80;15.75;;;;;;;-4.48;76.66;97062.42;1701520;83;21352;-88
2020/12/02 04:15:06;;;;;;;23.18;15.25;;;;;;;-4.49;76.61;97060.33;1691800;83;21521;-87
2020/12/02 04:17:32;;;;;;;26.20;15.30;;;;;;;-4.45;76.67;97061.00;1684057;84;21512;-88
2020/12/02 04:19:58;;;;;;;25.27;15.90;;;;;;;-4.44;76.59;97058.84;1701942;83;21143;-87
2020/12/02 04:22:24;;;;;;;26.27;15.88;;;;;;;-4.45;76.49;97061.00;1708394;83;21078;-88
2020/12/02 04:24:50;;;;;;;26.25;16.05;;;;;;;-4.44;76.51;97063.91;1704633;83;21103;-88
2020/12/02 04:27:16;;;;;;;26.02;15.28;;;;;;;-4.45;76.45;97061.82;1712369;83;21148;-88
2020/12/02 04:29:43;;;;;;;26.65;15.30;;;;;;;-4.45;76.35;97066.08;1692313;83;21177;-88
2020/12/02 04:32:09;;;;;;;27.45;15.75;;;;;;;-4.47;76.33;97059.81;1691673;83;21090;-88
2020/12/02 04:34:36;;;;;;;26.00;16.85;;;;;;;-4.48;76.32;97064.95;1692239;84;21107;-88
2020/12/02 04:37:01;;;;;;;23.80;15.70;;;;;;;-4.46;76.44;97059.36;1706679;84;21106;-88
2020/12/02 04:39:28;;;;;;;25.27;15.78;;;;;;;-4.44;76.36;97060.11;1713729;83;21102;-88
2020/12/02 04:41:54;;;;;;;21.85;14.45;;;;;;;-4.41;76.48;97059.50;1684186;84;21174;-88
2020/12/02 04:44:20;;;;;;;25.43;15.18;;;;;;;-4.38;76.56;97067.44;1754539;81;21087;-87
2020/12/02 04:46:46;;;;;;;28.27;17.27;;;;;;;-4.40;76.36;97058.61;1678837;84;22080;-88
2020/12/02 04:49:21;;;;;;;26.97;15.78;;;;;;;-4.35;76.19;97070.65;1692826;83;21388;-88
2020/12/02 04:51:50;;;;;;;25.40;14.43;;;;;;;-4.35;76.16;97069.83;1702510;83;21102;-88
2020/12/02 04:54:15;;;;;;;23.73;15.35;;;;;;;-4.43;76.15;97061.75;1758583;81;21225;-88
2020/12/02 04:56:46;;;;;;;28.25;15.98;;;;;;;-4.39;76.13;97073.41;1767597;81;21126;-90
2020/12/02 04:59:12;;;;;;;25.70;15.15;;;;;;;-4.39;76.17;97075.50;1748185;81;21106;-88
2020/12/02 05:01:53;;;;;;;27.62;15.90;;;;;;;-4.36;76.05;97067.73;1754983;81;21102;-88
2020/12/02 05:04:25;;;;;;;27.90;16.95;;;;;;;-4.34;76.13;97074.00;1756524;81;21087;-88
2020/12/02 05:07:09;;;;;;;23.50;14.90;;;;;;;-4.30;76.05;97075.48;1753428;81;21273;-88
2020/12/02 05:09:38;;;;;;;27.55;15.83;;;;;;;-4.29;75.96;97072.06;1752353;81;21360;-88
2020/12/02 05:12:12;;;;;;;24.52;15.78;;;;;;;-4.33;75.75;97071.39;1720244;81;21123;-88
2020/12/02 05:14:42;;;;;;;24.90;15.58;;;;;;;-4.37;75.86;97070.34;1749183;81;21119;-88
2020/12/02 05:17:25;;;;;;;24.25;15.38;;;;;;;-4.41;75.78;97072.63;1749802;81;21371;-88
2020/12/02 05:20:14;;;;;;;26.90;15.45;;;;;;;-4.44;75.85;97070.25;1763319;81;21143;-87
2020/12/02 05:22:46;;;;;;;26.33;15.08;;;;;;;-4.47;75.94;97068.69;1753325;81;21133;-88
2020/12/02 05:25:21;;;;;;;22.62;12.75;;;;;;;-4.51;75.81;97071.00;1756309;81;21418;-88
2020/12/02 05:27:49;;;;;;;30.30;15.00;;;;;;;-4.51;75.81;97071.00;1743831;81;21102;-88
2020/12/02 05:30:29;;;;;;;25.62;16.00;;;;;;;-4.55;75.99;97067.80;1757008;81;21147;-88
2020/12/02 05:33:16;;;;;;;28.50;17.27;;;;;;;-4.57;76.04;97066.20;1745159;81;21157;-88
2020/12/02 05:35:52;;;;;;;28.38;16.32;;;;;;;-4.59;76.07;97067.55;1750919;81;21239;-88
2020/12/02 05:38:35;;;;;;;28.73;16.50;;;;;;;-4.59;76.26;97062.47;1757993;81;21142;-87
2020/12/02 05:41:02;;;;;;;30.75;16.57;;;;;;;-4.57;76.34;97061.95;1736609;81;21121;-88
2020/12/02 05:43:37;;;;;;;31.17;16.85;;;;;;;-4.52;76.51;97065.55;1752199;81;21257;-87
2020/12/02 05:46:03;;;;;;;31.35;17.25;;;;;;;-4.54;76.38;97068.61;1762317;81;21339;-87
2020/12/02 05:48:40;;;;;;;28.57;17.62;;;;;;;-4.57;76.41;97062.39;1756400;80;21305;-88
2020/12/02 05:51:16;;;;;;;28.32;17.77;;;;;;;-4.58;76.44;97060.75;1763937;80;21255;-88
2020/12/02 05:53:56;;;;;;;26.62;17.23;;;;;;;-4.60;76.45;97064.63;1754889;80;21156;-88
2020/12/02 05:56:22;;;;;;;24.82;16.50;;;;;;;-4.65;76.54;97058.14;1766670;80;21493;-88
2020/12/02 05:58:48;;;;;;;28.35;17.00;;;;;;;-4.63;76.53;97059.71;1753010;80;21232;-88
2020/12/02 06:01:16;;;;;;;24.52;15.32;;;;;;;-4.59;76.74;97065.01;1757439;80;21839;-88
2020/12/02 06:03:42;;;;;;;25.80;16.45;;;;;;;-4.52;76.51;97063.02;1755152;80;21122;-87
2020/12/02 06:06:12;;;;;;;26.40;15.83;;;;;;;-4.52;76.32;97065.55;1720247;80;21459;-88
2020/12/02 06:08:44;;;;;;;25.10;15.93;;;;;;;-4.55;76.37;97065.70;1762824;80;21408;-88
2020/12/02 06:11:22;;;;;;;28.67;17.73;;;;;;;-4.55;76.35;97068.24;1682200;84;21307;-88
2020/12/02 06:14:17;;;;;;;23.25;16.00;;;;;;;-4.56;76.45;97058.97;1704434;82;21137;-88
2020/12/02 06:16:45;;;;;;;29.40;17.77;;;;;;;-4.58;76.46;97057.77;1651054;83;21171;-88
2020/12/02 06:19:23;;;;;;;25.40;15.45;;;;;;;-4.61;76.32;97049.49;1685641;84;21106;-87
2020/12/02 06:21:58;;;;;;;27.42;17.95;;;;;;;-4.62;76.35;97062.62;1678260;83;21264;-87
2020/12/02 06:24:46;;;;;;;36.63;20.37;;;;;;;-4.56;76.49;97069.11;1683754;83;21102;-88
2020/12/02 06:27:30;;;;;;;27.17;17.67;;;;;;;-4.45;76.38;97068.16;1681924;84;21122;-87
2020/12/02 06:30:07;;;;;;;31.05;17.40;;;;;;;-4.46;76.15;97069.50;1692291;83;21122;-88
2020/12/02 06:32:33;;;;;;;28.23;16.90;;;;;;;-4.49;76.03;97063.31;1674483;83;21139;-88
2020/12/02 06:35:19;;;;;;;29.55;16.32;;;;;;;-4.48;76.08;97067.05;1683738;83;21091;-88
2020/12/02 06:38:07;;;;;;;38.15;22.10;;;;;;;-4.49;75.92;97067.13;1677636;83;21373;-89
2020/12/02 06:40:33;;;;;;;28.55;17.67;;;;;;;-4.52;75.98;97064.73;1659599;83;21142;-88
2020/12/02 06:43:02;;;;;;;26.30;16.02;;;;;;;-4.56;75.87;97061.50;1632374;83;21138;-88
2020/12/02 06:45:34;;;;;;;24.52;15.13;;;;;;;-4.60;75.87;97058.74;1692899;83;21147;-86
2020/12/02 06:48:06;;;;;;;23.95;15.20;;;;;;;-4.60;75.98;97060.83;1681210;83;21165;-85
2020/12/02 06:50:34;;;;;;;25.45;17.62;;;;;;;-4.63;75.99;97057.63;1720652;81;21951;-86
2020/12/02 06:53:14;;;;;;;27.48;16.82;;;;;;;-4.64;76.04;97049.20;1738336;81;21122;-86
2020/12/02 06:55:44;;;;;;;23.10;14.90;;;;;;;-4.61;76.10;97050.76;1721558;81;21146;-86
2020/12/02 06:58:19;;;;;;;23.90;14.25;;;;;;;-4.59;76.16;97054.04;1725134;82;21150;-87
2020/12/02 07:00:48;;;;;;;21.40;14.90;;;;;;;-4.57;76.25;97055.61;1715191;82;21188;-85
2020/12/02 07:03:31;;;;;;;22.45;14.30;;;;;;;-4.47;76.18;97058.54;1732151;82;21121;-85
2020/12/02 07:06:27;;;;;;;27.48;16.57;;;;;;;-4.45;75.94;97054.66;1729154;81;21137;-85
2020/12/02 07:09:14;;;;;;;25.45;16.10;;;;;;;-4.42;76.17;97060.84;1733233;80;21149;-84
2020/12/02 07:11:57;;;;;;;24.43;14.73;;;;;;;-4.39;75.90;97059.02;1743732;80;21125;-85
2020/12/02 07:14:36;;;;;;;25.02;15.43;;;;;;;-4.34;76.00;97060.88;1720089;81;21138;-85
2020/12/02 07:17:16;;;;;;;25.10;14.18;;;;;;;-4.29;76.00;97057.66;1727039;81;21269;-84
2020/12/02 07:22:26;;;;;;;24.63;15.38;;;;;;;-4.39;75.41;97055.20;1772835;78;23657;-85
2020/12/02 07:25:00;;;;;;;21.82;14.80;;;;;;;-4.46;75.54;97053.84;1699068;82;21317;-85
2020/12/02 07:27:43;;;;;;;20.48;13.25;;;;;;;-4.43;75.48;97041.45;1711642;82;21130;-84
2020/12/02 07:30:25;;;;;;;20.62;13.20;;;;;;;-4.42;75.32;97045.63;1658785;80;21260;-85
2020/12/02 07:32:56;;;;;;;20.95;14.63;;;;;;;-4.39;75.52;97045.50;1750552;80;21130;-84
2020/12/02 07:35:25;;;;;;;25.88;16.00;;;;;;;-4.39;75.32;97045.50;1739955;82;21122;-85
2020/12/02 07:38:09;;;;;;;27.62;16.95;;;;;;;-4.37;75.57;97049.61;1744344;80;21333;-86
2020/12/02 07:41:22;;;;;;;;;;;;;;;;;;;;;
2020/12/02 07:44:01;;;;;;;30.10;20.17;;;;;;;-4.42;75.14;97036.75;1810285;78;22915;-85
2020/12/02 07:46:33;;;;;;;57.35;32.30;;;;;;;-4.46;75.32;97046.68;1783676;80;21070;-85
2020/12/02 07:49:05;;;;;;;65.70;36.70;;;;;;;-4.47;75.32;97038.25;1781445;79;21440;-85
2020/12/02 07:51:50;;;;;;;78.20;44.55;;;;;;;-4.47;75.21;97035.71;1764813;79;23037;-85
2020/12/02 07:54:24;;;;;;;62.58;39.30;;;;;;;-4.52;75.25;97032.59;1729165;80;21138;-85
2020/12/02 07:56:53;;;;;;;68.97;40.60;;;;;;;-4.49;75.14;97032.43;1738597;82;21980;-86
2020/12/02 07:59:39;;;;;;;75.05;44.70;;;;;;;-4.44;75.19;97030.93;1711695;82;21079;-84
2020/12/02 08:02:17;;;;;;;66.02;35.23;;;;;;;-4.41;75.06;97037.13;1727200;80;21090;-85
2020/12/02 08:04:58;;;;;;;70.52;40.78;;;;;;;-4.37;75.10;97038.64;1692796;82;21411;-84
2020/12/02 08:07:44;;;;;;;93.80;51.85;;;;;;;-4.39;74.77;97045.50;1676189;84;21143;-85
2020/12/02 08:10:25;;;;;;;114.03;69.32;;;;;;;-4.37;74.69;97052.59;1683939;82;21405;-85
2020/12/02 08:12:56;;;;;;;120.20;67.22;;;;;;;-4.44;74.26;97045.70;1694128;82;21577;-85
2020/12/02 08:15:27;;;;;;;125.58;69.22;;;;;;;-4.49;74.34;97045.56;1697984;82;21155;-83
2020/12/02 08:18:14;;;;;;;121.02;66.85;;;;;;;-4.60;74.33;97046.88;1684554;84;21149;-85
2020/12/02 08:20:46;;;;;;;117.85;67.22;;;;;;;-4.61;74.51;97033.83;1699822;82;21189;-84
2020/12/02 08:23:29;;;;;;;125.67;70.92;;;;;;;-4.57;74.27;97042.92;1691580;82;21136;-85
2020/12/02 08:26:07;;;;;;;124.05;72.03;;;;;;;-4.56;74.34;97046.28;1684298;83;21453;-84
2020/12/02 08:28:40;;;;;;;127.95;67.08;;;;;;;-4.54;74.51;97047.06;1693649;82;21088;-85
2020/12/02 08:31:28;;;;;;;128.32;67.72;;;;;;;-4.55;74.10;97047.95;1690180;82;21108;-86
2020/12/02 08:34:18;;;;;;;123.65;67.08;;;;;;;-4.60;74.07;97041.81;1679305;84;21157;-85
2020/12/02 08:36:49;;;;;;;126.00;68.95;;;;;;;-4.63;74.06;97044.95;1702442;82;21136;-86
2020/12/02 08:39:31;;;;;;;117.20;63.23;;;;;;;-4.66;73.93;97046.36;1690753;84;21096;-85
2020/12/02 08:42:27;;;;;;;121.85;65.62;;;;;;;-4.66;74.01;97043.37;1684562;82;21274;-85
2020/12/02 08:45:21;;;;;;;117.80;63.05;;;;;;;-4.62;73.89;97044.05;1825297;76;22732;-85
2020/12/02 08:48:01;;;;;;;119.57;63.80;;;;;;;-4.68;73.93;97054.05;1802107;77;21111;-85
2020/12/02 08:50:30;;;;;;;111.60;59.58;;;;;;;-4.67;74.03;97048.52;1808902;78;21377;-85
2020/12/02 08:52:58;;;;;;;118.33;65.80;;;;;;;-4.69;73.79;97045.24;1814985;77;21232;-84
2020/12/02 08:55:28;;;;;;;115.35;63.60;;;;;;;-4.70;73.97;97041.89;1815841;77;21103;-84
2020/12/02 08:57:58;;;;;;;114.28;61.00;;;;;;;-4.65;73.94;97044.20;1809789;77;21395;-85
2020/12/02 09:00:31;;;;;;;129.42;69.95;;;;;;;-4.58;74.09;97044.27;1803401;77;21372;-84
2020/12/02 09:02:59;;;;;;;117.22;63.00;;;;;;;-4.54;74.05;97045.34;1805242;77;21142;-85
2020/12/02 09:05:28;;;;;;;135.20;77.92;;;;;;;-4.43;73.97;97044.81;1752619;81;21134;-82
2020/12/02 09:07:55;;;;;;;142.53;74.55;;;;;;;-4.39;73.89;97036.18;1710705;79;21119;-83
2020/12/02 09:10:30;;;;;;;126.72;69.35;;;;;;;-4.32;73.83;97037.52;1745952;80;21117;-82
2020/12/02 09:12:59;;;;;;;130.63;73.57;;;;;;;-4.26;73.74;97041.01;1738806;81;21106;-84
2020/12/02 09:15:29;;;;;;;131.45;73.60;;;;;;;-4.19;73.74;97035.20;1750335;80;21150;-83
2020/12/02 09:17:59;;;;;;;174.68;103.02;;;;;;;-4.13;73.76;97036.61;1743429;79;21100;-84
2020/12/02 09:20:26;;;;;;;129.30;70.22;;;;;;;-4.06;73.64;97031.17;1743656;80;21121;-83
2020/12/02 09:22:56;;;;;;;123.82;74.90;;;;;;;-3.95;73.74;97029.34;1755159;79;21174;-82
2020/12/02 09:25:24;;;;;;;167.57;98.47;;;;;;;-3.88;73.62;97015.45;1757665;81;21586;-82
2020/12/02 09:27:51;;;;;;;171.28;101.55;;;;;;;-3.80;73.41;97018.86;1741969;80;21334;-83
2020/12/02 09:30:17;;;;;;;154.47;92.00;;;;;;;-3.72;73.51;97012.95;1760714;80;21156;-83
2020/12/02 09:32:44;;;;;;;129.82;81.00;;;;;;;-3.63;73.42;97013.29;1752400;79;21093;-83
2020/12/02 09:35:12;;;;;;;138.07;74.30;;;;;;;-3.56;73.31;97007.91;1746753;79;21094;-83
2020/12/02 09:37:39;;;;;;;125.35;75.22;;;;;;;-3.56;72.97;97003.65;1751514;80;21120;-83
2020/12/02 09:40:07;;;;;;;126.47;73.70;;;;;;;-3.53;72.91;96996.31;1744118;79;21121;-83
2020/12/02 09:42:54;;;;;;;105.90;59.18;;;;;;;-3.46;72.94;96995.08;1734777;81;21244;-84
2020/12/02 09:46:03;;;;;;;102.05;61.53;;;;;;;-3.34;72.84;96993.98;1750640;80;21169;-83
2020/12/02 09:48:29;;;;;;;136.55;78.12;;;;;;;-3.23;72.84;96992.61;1738377;80;21117;-83
2020/12/02 09:51:01;;;;;;;113.70;65.62;;;;;;;-3.18;72.60;96988.91;1742162;80;21321;-84
2020/12/02 09:53:29;;;;;;;151.57;92.17;;;;;;;-3.11;72.61;96995.73;1741154;80;21106;-84
2020/12/02 09:55:57;;;;;;;139.95;87.60;;;;;;;-3.07;72.42;96990.42;1727399;81;21114;-83
2020/12/02 09:58:26;;;;;;;117.55;69.42;;;;;;;-3.05;72.22;96991.16;1745806;81;21094;-83
2020/12/02 10:00:56;;;;;;;147.13;89.17;;;;;;;-3.04;72.38;96988.98;1738529;80;21094;-85
2020/12/02 10:03:57;;;;;;;156.95;98.30;;;;;;;-2.99;72.39;96989.17;1736099;81;21134;-84
2020/12/02 10:07:07;;;;;;;139.65;83.37;;;;;;;-2.95;72.34;96983.02;1740396;81;21264;-85
2020/12/02 10:10:03;;;;;;;151.57;90.30;;;;;;;-2.91;72.22;96980.23;1744807;81;21237;-84
2020/12/02 10:12:43;;;;;;;152.00;91.90;;;;;;;-3.00;71.71;96972.28;1735665;80;21168;-83
2020/12/02 10:15:20;;;;;;;165.05;95.25;;;;;;;-3.11;71.68;96972.86;1738936;81;21157;-83
2020/12/02 10:18:09;;;;;;;158.68;96.82;;;;;;;-3.10;72.05;96972.77;1730374;80;21162;-83
2020/12/02 10:20:40;;;;;;;152.00;90.80;;;;;;;-3.07;72.18;96977.72;1741091;80;21126;-83
2020/12/02 10:23:18;;;;;;;163.33;93.77;;;;;;;-2.97;72.17;96974.66;1732300;80;21153;-83
2020/12/02 10:26:43;;;;;;;173.50;97.25;;;;;;;-2.98;71.91;96971.74;1809292;77;23259;-82
2020/12/02 10:29:20;;;;;;;147.95;89.60;;;;;;;-3.00;72.09;96975.64;1820111;78;21222;-85
2020/12/02 10:31:58;;;;;;;145.60;86.32;;;;;;;-2.97;72.06;96972.11;1783532;78;21343;-84
2020/12/02 10:34:36;;;;;;;164.80;92.00;;;;;;;-2.78;72.30;96971.45;1761701;79;23111;-85
2020/12/02 10:37:22;;;;;;;93.60;56.90;;;;;;;-2.76;72.02;96974.30;1726881;80;21141;-84
2020/12/02 10:39:48;;;;;;;150.30;89.65;;;;;;;-2.70;72.08;96965.50;1732902;82;21225;-85
2020/12/02 10:42:41;;;;;;;160.90;98.58;;;;;;;-2.65;71.72;96969.88;1747977;82;21122;-84
2020/12/02 10:45:16;;;;;;;147.28;84.65;;;;;;;-2.60;71.94;96964.09;1736155;80;21103;-84
2020/12/02 10:48:21;;;;;;;154.93;90.38;;;;;;;-2.50;71.70;96968.19;1740746;80;21115;-85
2020/12/02 10:50:47;;;;;;;146.47;88.33;;;;;;;-2.44;71.87;96963.59;1730716;80;21126;-84
2020/12/02 10:53:17;;;;;;;152.95;88.70;;;;;;;-2.32;71.98;96960.77;1736108;80;21563;-84
2020/12/02 10:55:43;;;;;;;142.00;84.30;;;;;;;-2.23;71.91;96961.98;1733165;80;21122;-83
2020/12/02 10:58:20;;;;;;;145.05;84.35;;;;;;;-2.21;71.58;96959.70;1729126;82;21248;-83
2020/12/02 11:00:56;;;;;;;141.28;85.32;;;;;;;-2.18;71.68;96956.98;1736590;80;21096;-83
2020/12/02 11:03:33;;;;;;;146.28;86.00;;;;;;;-2.13;71.44;96949.88;1740542;80;21407;-83
2020/12/02 11:06:33;;;;;;;158.78;86.57;;;;;;;-2.07;71.57;96950.00;1725193;80;21118;-83
2020/12/02 11:09:13;;;;;;;145.75;84.47;;;;;;;-2.01;71.41;96941.16;1729149;82;21110;-84
2020/12/02 11:12:09;;;;;;;132.35;80.28;;;;;;;-2.02;71.21;96942.89;1726016;81;21121;-84
2020/12/02 11:14:57;;;;;;;127.17;74.80;;;;;;;-2.05;70.78;96935.44;1728433;80;21107;-84
2020/12/02 11:17:54;;;;;;;116.20;68.62;;;;;;;-2.18;70.82;96935.80;1678283;83;21145;-83
2020/12/02 11:20:28;;;;;;;118.75;67.35;;;;;;;-2.14;71.17;96934.23;1680204;83;21186;-83
2020/12/02 11:23:05;;;;;;;121.65;69.12;;;;;;;-2.26;70.73;96923.98;1682025;84;21129;-83
2020/12/02 11:26:13;;;;;;;118.82;70.17;;;;;;;-2.28;71.28;96925.77;1727957;82;21252;-83
2020/12/02 11:28:42;;;;;;;129.87;76.28;;;;;;;-2.24;71.27;96924.70;1729377;80;21090;-83
2020/12/02 11:31:49;;;;;;;122.30;71.65;;;;;;;-2.23;71.36;96916.98;1734687;80;21436;-84
2020/12/02 11:34:59;;;;;;;133.12;77.47;;;;;;;-2.16;71.51;96914.87;1731322;82;21233;-83
2020/12/02 11:37:33;;;;;;;124.10;71.05;;;;;;;-2.02;71.57;96908.97;1721570;81;21487;-83
2020/12/02 11:40:12;;;;;;;125.38;72.87;;;;;;;-1.96;71.35;96904.31;1721470;82;21321;-83
2020/12/02 11:42:55;;;;;;;132.93;76.90;;;;;;;-1.90;71.54;96906.97;1718430;81;21103;-83
2020/12/02 11:45:34;;;;;;;125.82;71.85;;;;;;;-1.84;71.62;96898.49;1726864;81;21435;-84
2020/12/02 11:48:24;;;;;;;133.55;73.92;;;;;;;-1.81;71.21;96889.84;1719095;82;21102;-84
2020/12/02 11:51:27;;;;;;;127.32;74.32;;;;;;;-1.76;71.32;96895.95;1729906;81;21472;-83
2020/12/02 11:53:59;;;;;;;121.33;69.25;;;;;;;-1.72;71.20;96891.84;1723622;81;21272;-84